Delta Pioneer — SYIO — position and weather

sailwx.info

Track history (hours):
 
Tides and Currents Weather Stations Pressure Air Temp Water Temp Dewpoint Dewpoint Depression Visibility Wind Speed Wind Dir Waves Ship Positions

Delta Pioneer

Last reported at 2015-May-04 00:28 UTC. Time now 2015-May-04 00:58 UTC.
Position N 51°24' E 002°37'.

Length 249 m; draft 14.1 m.

Type: Ship (hazmat cat C). MMSI: 240244000.

Date/timePositionNaut miles runAvg speedWind from/ knotsBaromVisibWave heightAir tempDewpointWater temp
2015-May-04 00:28N 51°24' E 002°37'0 0.0
2015-May-03 23:22N 51°24' E 002°37'0 0.0
2015-May-03 22:32N 51°24' E 002°37'0 0.2
2015-May-03 21:04N 51°24' E 002°36'0 0.2
2015-May-03 20:10N 51°24' E 002°36'0 0.1
2015-May-03 19:13N 51°24' E 002°36'0 0.3
2015-May-03 18:31N 51°24' E 002°36'0 0.1
2015-May-03 17:19N 51°24' E 002°37'0 0.0
2015-May-03 16:31N 51°24' E 002°37'0 0.0
2015-May-03 15:28N 51°24' E 002°37'0 0.0
2015-May-03 14:22N 51°24' E 002°37'0 0.0
2015-May-03 12:28N 51°24' E 002°37'0 0.0
2015-May-03 11:04N 51°24' E 002°37'0 0.2
2015-May-03 09:19N 51°24' E 002°36'1 0.4
2015-May-03 07:29N 51°24' E 002°35'8 8.2
2015-May-03 06:33N 51°20' E 002°24'8 8.1
2015-May-03 05:33N 51°19' E 002°12'9 9.3
2015-May-03 04:33N 51°24' E 001°59'10 9.7
2015-May-03 03:33N 51°32' E 002°07'47710.8
2015-May-01 07:33N 57°51' E 010°27'1110.6
2015-May-01 06:33N 57°47' E 010°46'1211.7
2015-May-01 05:33N 57°40' E 011°02'1111.3
2015-May-01 04:33N 57°32' E 011°18'1111.0
2015-May-01 03:33N 57°23' E 011°29'1212.0
2015-May-01 02:33N 57°12' E 011°37'1211.7
2015-May-01 01:33N 57°01' E 011°44'1111.2
2015-May-01 00:33N 56°50' E 011°52'1110.5
2015-Apr-30 23:33N 56°40' E 011°48'12510.1
2015-Apr-30 11:08N 54°38' E 010°54'712.5
2015-Apr-30 10:33N 54°36' E 011°06'1212.2
2015-Apr-30 09:33N 54°31' E 011°26'1212.0
2015-Apr-30 08:33N 54°27' E 011°45'1212.1
2015-Apr-30 07:33N 54°26' E 012°06'1110.6
2015-Apr-30 06:31N 54°35' E 012°16'9 6.6
2015-Apr-30 05:11N 54°41' E 012°28'6 8.9
2015-Apr-30 04:33N 54°43' E 012°36'10 9.3
2015-Apr-30 03:31N 54°48' E 012°51'1111.6
2015-Apr-30 02:33N 54°53' E 013°08'1211.8
2015-Apr-30 01:33N 54°57' E 013°28'1111.3
2015-Apr-30 00:33N 55°01' E 013°46'1111.3
2015-Apr-29 23:33N 55°05' E 014°04'1111.3
2015-Apr-29 22:33N 55°14' E 014°17'1211.6
2015-Apr-29 21:32N 55°23' E 014°30'1111.3
2015-Apr-29 20:33N 55°30' E 014°46'1211.5
2015-Apr-29 19:33N 55°35' E 015°04'1111.3
2015-Apr-29 18:33N 55°39' E 015°22'1111.2
2015-Apr-29 17:33N 55°41' E 015°42'32310.7
2015-Apr-28 11:14N 59°32' E 022°45'811.1
2015-Apr-28 10:33N 59°34' E 022°59'1111.1
2015-Apr-28 09:33N 59°37' E 023°20'1111.1
2015-Apr-28 08:33N 59°41' E 023°41'1111.1
2015-Apr-28 07:33N 59°44' E 024°02'1111.2
2015-Apr-28 06:32N 59°47' E 024°24'5911.7
2015-Apr-28 01:29N 59°59' E 026°19'1111.5
2015-Apr-28 00:33N 60°01' E 026°39'  
2015-Apr-25 16:18N 60°03' E 027°22'1011.0
2015-Apr-25 15:24N 59°58' E 027°05'910.7
2015-Apr-25 14:33N 59°59' E 026°47'1111.0
2015-Apr-25 13:32N 59°57' E 026°25'1111.2
2015-Apr-25 12:33N 59°54' E 026°04'1711.2
2015-Apr-25 11:04N 59°50' E 025°32'1811.1
2015-Apr-25 09:27N 59°47' E 024°57'1011.2
2015-Apr-25 08:33N 59°45' E 024°38'1111.1
2015-Apr-25 07:33N 59°42' E 024°16'1111.3
2015-Apr-25 06:33N 59°39' E 023°55'1111.2
2015-Apr-25 05:33N 59°35' E 023°34'1111.1
2015-Apr-25 04:32N 59°32' E 023°12'1110.8
2015-Apr-25 03:33N 59°28' E 022°52'1110.8
2015-Apr-25 02:33N 59°24' E 022°33'  
Track history (hours):
 
Tides and Currents Weather Stations Pressure Air Temp Water Temp Dewpoint Dewpoint Depression Visibility Wind Speed Wind Dir Waves Ship Positions

Delta Pioneer

Last reported at 2015-May-04 00:28 UTC. Time now 2015-May-04 00:58 UTC.
Position N 51°24' E 002°37'.

Length 249 m; draft 14.1 m.

Type: Ship (hazmat cat C). MMSI: 240244000.

Date/timePositionNaut miles runAvg speedWind from/ knotsBaromVisibWave heightAir tempDewpointWater temp
2015-May-04 00:28N 51°24' E 002°37'0 0.0
2015-May-03 23:22N 51°24' E 002°37'0 0.0
2015-May-03 22:32N 51°24' E 002°37'0 0.2
2015-May-03 21:04N 51°24' E 002°36'0 0.2
2015-May-03 20:10N 51°24' E 002°36'0 0.1
2015-May-03 19:13N 51°24' E 002°36'0 0.3
2015-May-03 18:31N 51°24' E 002°36'0 0.1
2015-May-03 17:19N 51°24' E 002°37'0 0.0
2015-May-03 16:31N 51°24' E 002°37'0 0.0
2015-May-03 15:28N 51°24' E 002°37'0 0.0
2015-May-03 14:22N 51°24' E 002°37'0 0.0
2015-May-03 12:28N 51°24' E 002°37'0 0.0
2015-May-03 11:04N 51°24' E 002°37'0 0.2
2015-May-03 09:19N 51°24' E 002°36'1 0.4
2015-May-03 07:29N 51°24' E 002°35'8 8.2
2015-May-03 06:33N 51°20' E 002°24'8 8.1
2015-May-03 05:33N 51°19' E 002°12'9 9.3
2015-May-03 04:33N 51°24' E 001°59'10 9.7
2015-May-03 03:33N 51°32' E 002°07'47710.8
2015-May-01 07:33N 57°51' E 010°27'1110.6
2015-May-01 06:33N 57°47' E 010°46'1211.7
2015-May-01 05:33N 57°40' E 011°02'1111.3
2015-May-01 04:33N 57°32' E 011°18'1111.0
2015-May-01 03:33N 57°23' E 011°29'1212.0
2015-May-01 02:33N 57°12' E 011°37'1211.7
2015-May-01 01:33N 57°01' E 011°44'1111.2
2015-May-01 00:33N 56°50' E 011°52'1110.5
2015-Apr-30 23:33N 56°40' E 011°48'12510.1
2015-Apr-30 11:08N 54°38' E 010°54'712.5
2015-Apr-30 10:33N 54°36' E 011°06'1212.2
2015-Apr-30 09:33N 54°31' E 011°26'1212.0
2015-Apr-30 08:33N 54°27' E 011°45'1212.1
2015-Apr-30 07:33N 54°26' E 012°06'1110.6
2015-Apr-30 06:31N 54°35' E 012°16'9 6.6
2015-Apr-30 05:11N 54°41' E 012°28'6 8.9
2015-Apr-30 04:33N 54°43' E 012°36'10 9.3
2015-Apr-30 03:31N 54°48' E 012°51'1111.6
2015-Apr-30 02:33N 54°53' E 013°08'1211.8
2015-Apr-30 01:33N 54°57' E 013°28'1111.3
2015-Apr-30 00:33N 55°01' E 013°46'1111.3
2015-Apr-29 23:33N 55°05' E 014°04'1111.3
2015-Apr-29 22:33N 55°14' E 014°17'1211.6
2015-Apr-29 21:32N 55°23' E 014°30'1111.3
2015-Apr-29 20:33N 55°30' E 014°46'1211.5
2015-Apr-29 19:33N 55°35' E 015°04'1111.3
2015-Apr-29 18:33N 55°39' E 015°22'1111.2
2015-Apr-29 17:33N 55°41' E 015°42'32310.7
2015-Apr-28 11:14N 59°32' E 022°45'811.1
2015-Apr-28 10:33N 59°34' E 022°59'1111.1
2015-Apr-28 09:33N 59°37' E 023°20'1111.1
2015-Apr-28 08:33N 59°41' E 023°41'1111.1
2015-Apr-28 07:33N 59°44' E 024°02'1111.2
2015-Apr-28 06:32N 59°47' E 024°24'5911.7
2015-Apr-28 01:29N 59°59' E 026°19'1111.5
2015-Apr-28 00:33N 60°01' E 026°39'  
2015-Apr-25 16:18N 60°03' E 027°22'1011.0
2015-Apr-25 15:24N 59°58' E 027°05'910.7
2015-Apr-25 14:33N 59°59' E 026°47'1111.0
2015-Apr-25 13:32N 59°57' E 026°25'1111.2
2015-Apr-25 12:33N 59°54' E 026°04'1711.2
2015-Apr-25 11:04N 59°50' E 025°32'1811.1
2015-Apr-25 09:27N 59°47' E 024°57'1011.2
2015-Apr-25 08:33N 59°45' E 024°38'1111.1
2015-Apr-25 07:33N 59°42' E 024°16'1111.3
2015-Apr-25 06:33N 59°39' E 023°55'1111.2
2015-Apr-25 05:33N 59°35' E 023°34'1111.1
2015-Apr-25 04:32N 59°32' E 023°12'1110.8
2015-Apr-25 03:33N 59°28' E 022°52'1110.8
2015-Apr-25 02:33N 59°24' E 022°33'  

Dump ship's entire track history